AL5 weather

CLOSED Alexis Creek Airport
Alexis Creek, British Columbia, Canada

Public forecast

Using degrees Celsius for public forecast. Weather courtesy of forecast.io.

Closest aviation weather report (METAR) to Alexis Creek Airport

Closest report is Williams Lake Airport, 45.0 nm (83.3 km) E. Retrieved 2019/10/18 13:00 UTC (39 seconds ago):

CYWL 181300Z 12006KT 15SM FEW150 BKN230 02/M01 A2947 RMK AC2CI4 SLP002

Closest aviation forecast (TAF) to Alexis Creek Airport

Closest forecast is Williams Lake Airport, 45.0 nm (83.3 km) E. Retrieved 2019/10/18 13:39 UTC (0 seconds ago):

TAF CYWL 181238Z 1813/1901 13010KT P6SM FEW070 SCT140 BECMG 1814/1816 18010KT RMK NXT FCST BY 181900Z